sensor_id;sensor_type;location;lat;lon;timestamp;P1;durP1;ratioP1;P2;durP2;ratioP2
79025;SDS011;68425;44.716;37.756;2023-04-01T00:00:07;3.08;;;1.30;;
79025;SDS011;68425;44.716;37.756;2023-04-01T00:01:13;2.00;;;1.08;;
79025;SDS011;68425;44.716;37.756;2023-04-01T00:02:15;3.45;;;1.25;;
79025;SDS011;68425;44.716;37.756;2023-04-01T00:03:17;2.85;;;1.20;;
79025;SDS011;68425;44.716;37.756;2023-04-01T00:04:19;2.42;;;1.00;;
79025;SDS011;68425;44.716;37.756;2023-04-01T00:05:21;3.17;;;1.20;;
79025;SDS011;68425;44.716;37.756;2023-04-01T00:07:28;2.58;;;1.10;;
79025;SDS011;68425;44.716;37.756;2023-04-01T00:08:29;2.40;;;1.30;;
79025;SDS011;68425;44.716;37.756;2023-04-01T00:09:31;2.22;;;1.13;;
79025;SDS011;68425;44.716;37.756;2023-04-01T00:10:32;2.90;;;1.20;;
79025;SDS011;68425;44.716;37.756;2023-04-01T00:11:33;2.80;;;1.20;;
79025;SDS011;68425;44.716;37.756;2023-04-01T00:12:35;2.38;;;1.13;;
79025;SDS011;68425;44.716;37.756;2023-04-01T00:13:37;2.28;;;1.00;;
79025;SDS011;68425;44.716;37.756;2023-04-01T00:14:38;2.15;;;1.10;;
79025;SDS011;68425;44.716;37.756;2023-04-01T00:15:40;2.42;;;1.17;;
79025;SDS011;68425;44.716;37.756;2023-04-01T00:16:42;2.45;;;1.20;;
79025;SDS011;68425;44.716;37.756;2023-04-01T00:17:44;2.83;;;1.10;;
79025;SDS011;68425;44.716;37.756;2023-04-01T00:18:45;2.50;;;1.17;;
79025;SDS011;68425;44.716;37.756;2023-04-01T00:19:48;1.95;;;1.10;;
79025;SDS011;68425;44.716;37.756;2023-04-01T00:20:50;2.67;;;1.10;;
79025;SDS011;68425;44.716;37.756;2023-04-01T00:21:52;2.72;;;1.33;;
79025;SDS011;68425;44.716;37.756;2023-04-01T00:22:54;3.00;;;1.35;;
79025;SDS011;68425;44.716;37.756;2023-04-01T00:23:55;2.65;;;1.13;;
79025;SDS011;68425;44.716;37.756;2023-04-01T00:24:57;2.92;;;1.42;;
79025;SDS011;68425;44.716;37.756;2023-04-01T00:26:01;2.78;;;1.30;;
79025;SDS011;68425;44.716;37.756;2023-04-01T00:27:03;3.20;;;1.60;;
79025;SDS011;68425;44.716;37.756;2023-04-01T00:28:04;3.90;;;1.75;;
79025;SDS011;68425;44.716;37.756;2023-04-01T00:29:06;2.60;;;1.30;;
79025;SDS011;68425;44.716;37.756;2023-04-01T00:30:08;2.33;;;1.40;;
79025;SDS011;68425;44.716;37.756;2023-04-01T00:31:10;2.30;;;1.23;;
79025;SDS011;68425;44.716;37.756;2023-04-01T00:32:12;2.72;;;1.33;;
79025;SDS011;68425;44.716;37.756;2023-04-01T00:33:13;2.33;;;1.20;;
79025;SDS011;68425;44.716;37.756;2023-04-01T00:34:16;3.38;;;1.40;;
79025;SDS011;68425;44.716;37.756;2023-04-01T00:35:17;2.13;;;1.20;;
79025;SDS011;68425;44.716;37.756;2023-04-01T00:36:20;2.60;;;1.30;;
79025;SDS011;68425;44.716;37.756;2023-04-01T00:37:25;2.55;;;1.10;;
79025;SDS011;68425;44.716;37.756;2023-04-01T00:38:28;2.70;;;1.38;;
79025;SDS011;68425;44.716;37.756;2023-04-01T00:39:29;2.35;;;1.10;;
79025;SDS011;68425;44.716;37.756;2023-04-01T00:40:33;2.25;;;0.98;;
79025;SDS011;68425;44.716;37.756;2023-04-01T00:41:36;2.35;;;1.25;;
79025;SDS011;68425;44.716;37.756;2023-04-01T00:42:38;3.22;;;1.25;;
79025;SDS011;68425;44.716;37.756;2023-04-01T00:43:39;2.80;;;1.25;;
79025;SDS011;68425;44.716;37.756;2023-04-01T00:44:42;2.88;;;1.30;;
79025;SDS011;68425;44.716;37.756;2023-04-01T00:46:48;1.92;;;1.23;;
79025;SDS011;68425;44.716;37.756;2023-04-01T00:47:50;2.72;;;1.20;;
79025;SDS011;68425;44.716;37.756;2023-04-01T00:48:52;2.10;;;1.10;;
79025;SDS011;68425;44.716;37.756;2023-04-01T00:49:56;2.35;;;1.17;;
79025;SDS011;68425;44.716;37.756;2023-04-01T00:51:10;2.17;;;1.10;;
79025;SDS011;68425;44.716;37.756;2023-04-01T00:52:16;2.17;;;1.17;;
79025;SDS011;68425;44.716;37.756;2023-04-01T00:53:23;3.15;;;1.50;;
79025;SDS011;68425;44.716;37.756;2023-04-01T00:54:25;2.30;;;1.20;;
79025;SDS011;68425;44.716;37.756;2023-04-01T00:55:30;2.10;;;1.02;;
79025;SDS011;68425;44.716;37.756;2023-04-01T00:56:36;2.20;;;1.17;;
79025;SDS011;68425;44.716;37.756;2023-04-01T00:57:41;3.17;;;1.20;;
79025;SDS011;68425;44.716;37.756;2023-04-01T00:58:46;3.38;;;1.40;;
79025;SDS011;68425;44.716;37.756;2023-04-01T00:59:52;2.65;;;1.20;;
79025;SDS011;68425;44.716;37.756;2023-04-01T01:00:55;2.33;;;1.20;;
79025;SDS011;68425;44.716;37.756;2023-04-01T01:02:04;2.40;;;1.00;;
79025;SDS011;68425;44.716;37.756;2023-04-01T01:03:07;2.20;;;1.20;;
79025;SDS011;68425;44.716;37.756;2023-04-01T01:08:55;2.75;;;1.20;;
79025;SDS011;68425;44.716;37.756;2023-04-01T01:11:39;2.28;;;1.05;;
79025;SDS011;68425;44.716;37.756;2023-04-01T01:13:49;2.15;;;1.10;;
79025;SDS011;68425;44.716;37.756;2023-04-01T01:15:26;2.17;;;0.90;;
79025;SDS011;68425;44.716;37.756;2023-04-01T01:16:37;1.77;;;1.15;;
79025;SDS011;68425;44.716;37.756;2023-04-01T01:27:46;2.85;;;1.15;;
79025;SDS011;68425;44.716;37.756;2023-04-01T01:31:25;2.47;;;1.20;;
79025;SDS011;68425;44.716;37.756;2023-04-01T01:32:55;2.35;;;1.20;;
79025;SDS011;68425;44.716;37.756;2023-04-01T01:35:35;2.70;;;1.10;;
79025;SDS011;68425;44.716;37.756;2023-04-01T01:36:50;2.53;;;1.20;;
79025;SDS011;68425;44.716;37.756;2023-04-01T01:37:58;1.98;;;1.05;;
79025;SDS011;68425;44.716;37.756;2023-04-01T01:39:03;2.15;;;1.13;;
79025;SDS011;68425;44.716;37.756;2023-04-01T01:40:08;2.03;;;1.02;;
79025;SDS011;68425;44.716;37.756;2023-04-01T01:41:13;2.65;;;1.20;;
79025;SDS011;68425;44.716;37.756;2023-04-01T01:42:18;1.98;;;1.05;;
79025;SDS011;68425;44.716;37.756;2023-04-01T01:43:25;2.33;;;0.90;;
79025;SDS011;68425;44.716;37.756;2023-04-01T01:44:31;2.92;;;1.10;;
79025;SDS011;68425;44.716;37.756;2023-04-01T01:45:35;3.03;;;1.20;;
79025;SDS011;68425;44.716;37.756;2023-04-01T01:46:38;2.38;;;1.08;;
79025;SDS011;68425;44.716;37.756;2023-04-01T01:47:41;1.65;;;1.00;;
79025;SDS011;68425;44.716;37.756;2023-04-01T01:48:44;2.28;;;1.00;;
79025;SDS011;68425;44.716;37.756;2023-04-01T01:50:50;2.28;;;1.17;;
79025;SDS011;68425;44.716;37.756;2023-04-01T01:51:52;1.92;;;1.10;;
79025;SDS011;68425;44.716;37.756;2023-04-01T01:53:02;2.00;;;1.10;;
79025;SDS011;68425;44.716;37.756;2023-04-01T01:54:12;1.77;;;1.00;;
79025;SDS011;68425;44.716;37.756;2023-04-01T01:55:31;2.90;;;1.20;;
79025;SDS011;68425;44.716;37.756;2023-04-01T01:56:37;1.17;;;0.90;;
79025;SDS011;68425;44.716;37.756;2023-04-01T01:57:40;2.28;;;1.00;;
79025;SDS011;68425;44.716;37.756;2023-04-01T01:58:49;1.98;;;0.98;;
79025;SDS011;68425;44.716;37.756;2023-04-01T01:59:56;1.48;;;1.00;;
79025;SDS011;68425;44.716;37.756;2023-04-01T02:01:14;1.52;;;0.82;;
79025;SDS011;68425;44.716;37.756;2023-04-01T02:02:21;2.53;;;1.00;;
79025;SDS011;68425;44.716;37.756;2023-04-01T02:04:26;2.53;;;1.10;;
79025;SDS011;68425;44.716;37.756;2023-04-01T02:05:28;2.53;;;1.20;;
79025;SDS011;68425;44.716;37.756;2023-04-01T02:06:39;2.70;;;1.10;;
79025;SDS011;68425;44.716;37.756;2023-04-01T02:07:55;2.55;;;1.25;;
79025;SDS011;68425;44.716;37.756;2023-04-01T02:09:17;1.98;;;1.00;;
79025;SDS011;68425;44.716;37.756;2023-04-01T02:10:19;2.50;;;1.10;;
79025;SDS011;68425;44.716;37.756;2023-04-01T02:13:18;2.67;;;1.27;;
79025;SDS011;68425;44.716;37.756;2023-04-01T02:14:27;3.10;;;1.13;;
79025;SDS011;68425;44.716;37.756;2023-04-01T02:15:41;1.77;;;1.20;;
79025;SDS011;68425;44.716;37.756;2023-04-01T02:16:49;1.92;;;0.90;;
79025;SDS011;68425;44.716;37.756;2023-04-01T02:18:05;2.33;;;1.00;;
79025;SDS011;68425;44.716;37.756;2023-04-01T02:19:07;1.90;;;1.00;;
79025;SDS011;68425;44.716;37.756;2023-04-01T02:21:16;2.00;;;1.20;;
79025;SDS011;68425;44.716;37.756;2023-04-01T02:22:38;2.15;;;1.20;;
79025;SDS011;68425;44.716;37.756;2023-04-01T02:23:45;2.17;;;1.20;;
79025;SDS011;68425;44.716;37.756;2023-04-01T02:24:48;1.88;;;1.00;;
79025;SDS011;68425;44.716;37.756;2023-04-01T02:25:52;2.20;;;1.20;;
79025;SDS011;68425;44.716;37.756;2023-04-01T02:26:54;1.83;;;1.00;;
79025;SDS011;68425;44.716;37.756;2023-04-01T02:27:58;2.88;;;1.35;;
79025;SDS011;68425;44.716;37.756;2023-04-01T02:29:00;2.20;;;1.10;;
79025;SDS011;68425;44.716;37.756;2023-04-01T02:30:04;1.42;;;0.82;;
79025;SDS011;68425;44.716;37.756;2023-04-01T02:31:08;2.65;;;1.20;;
79025;SDS011;68425;44.716;37.756;2023-04-01T02:32:12;2.08;;;1.00;;
79025;SDS011;68425;44.716;37.756;2023-04-01T02:33:15;2.60;;;1.20;;
79025;SDS011;68425;44.716;37.756;2023-04-01T02:34:18;2.28;;;1.20;;
79025;SDS011;68425;44.716;37.756;2023-04-01T02:35:20;1.70;;;1.02;;
79025;SDS011;68425;44.716;37.756;2023-04-01T02:36:22;1.73;;;0.95;;
79025;SDS011;68425;44.716;37.756;2023-04-01T02:37:24;2.22;;;1.10;;
79025;SDS011;68425;44.716;37.756;2023-04-01T02:38:25;2.33;;;1.00;;
79025;SDS011;68425;44.716;37.756;2023-04-01T02:39:27;2.47;;;1.10;;
79025;SDS011;68425;44.716;37.756;2023-04-01T02:40:28;2.00;;;1.10;;
79025;SDS011;68425;44.716;37.756;2023-04-01T02:41:30;1.42;;;0.90;;
79025;SDS011;68425;44.716;37.756;2023-04-01T02:42:32;2.55;;;1.00;;
79025;SDS011;68425;44.716;37.756;2023-04-01T02:43:33;2.03;;;1.00;;
79025;SDS011;68425;44.716;37.756;2023-04-01T02:44:36;2.70;;;1.40;;
79025;SDS011;68425;44.716;37.756;2023-04-01T02:45:37;2.05;;;1.20;;
79025;SDS011;68425;44.716;37.756;2023-04-01T02:46:39;2.50;;;1.20;;
79025;SDS011;68425;44.716;37.756;2023-04-01T02:47:40;3.17;;;1.38;;
79025;SDS011;68425;44.716;37.756;2023-04-01T02:48:42;2.58;;;1.10;;
79025;SDS011;68425;44.716;37.756;2023-04-01T02:49:43;2.47;;;0.93;;
79025;SDS011;68425;44.716;37.756;2023-04-01T02:50:45;1.95;;;1.00;;
79025;SDS011;68425;44.716;37.756;2023-04-01T02:51:47;2.47;;;1.10;;
79025;SDS011;68425;44.716;37.756;2023-04-01T02:52:48;2.40;;;1.10;;
79025;SDS011;68425;44.716;37.756;2023-04-01T02:53:50;3.35;;;1.10;;
79025;SDS011;68425;44.716;37.756;2023-04-01T02:54:51;1.73;;;1.00;;
79025;SDS011;68425;44.716;37.756;2023-04-01T02:55:53;1.60;;;0.88;;
79025;SDS011;68425;44.716;37.756;2023-04-01T02:56:54;3.10;;;1.17;;
79025;SDS011;68425;44.716;37.756;2023-04-01T02:57:56;1.40;;;0.98;;
79025;SDS011;68425;44.716;37.756;2023-04-01T02:58:57;2.40;;;1.00;;
79025;SDS011;68425;44.716;37.756;2023-04-01T02:59:58;2.40;;;1.10;;
79025;SDS011;68425;44.716;37.756;2023-04-01T03:01:00;2.05;;;1.00;;
79025;SDS011;68425;44.716;37.756;2023-04-01T03:02:01;2.75;;;1.30;;
79025;SDS011;68425;44.716;37.756;2023-04-01T03:03:03;2.10;;;1.13;;
79025;SDS011;68425;44.716;37.756;2023-04-01T03:04:04;2.08;;;1.17;;
79025;SDS011;68425;44.716;37.756;2023-04-01T03:05:06;2.72;;;1.10;;
79025;SDS011;68425;44.716;37.756;2023-04-01T03:06:08;2.40;;;1.10;;
79025;SDS011;68425;44.716;37.756;2023-04-01T03:07:12;1.70;;;1.00;;
79025;SDS011;68425;44.716;37.756;2023-04-01T03:08:13;1.90;;;1.00;;
79025;SDS011;68425;44.716;37.756;2023-04-01T03:09:14;2.33;;;1.25;;
79025;SDS011;68425;44.716;37.756;2023-04-01T03:10:16;2.45;;;1.13;;
79025;SDS011;68425;44.716;37.756;2023-04-01T03:11:18;2.65;;;1.00;;
79025;SDS011;68425;44.716;37.756;2023-04-01T03:12:19;1.88;;;1.10;;
79025;SDS011;68425;44.716;37.756;2023-04-01T03:13:24;2.13;;;1.15;;
79025;SDS011;68425;44.716;37.756;2023-04-01T03:14:26;2.80;;;1.10;;
79025;SDS011;68425;44.716;37.756;2023-04-01T03:15:27;3.42;;;1.30;;
79025;SDS011;68425;44.716;37.756;2023-04-01T03:16:35;2.58;;;1.02;;
79025;SDS011;68425;44.716;37.756;2023-04-01T03:17:37;2.30;;;1.10;;
79025;SDS011;68425;44.716;37.756;2023-04-01T03:18:39;2.03;;;1.00;;
79025;SDS011;68425;44.716;37.756;2023-04-01T03:19:41;2.08;;;1.13;;
79025;SDS011;68425;44.716;37.756;2023-04-01T03:20:43;3.03;;;1.30;;
79025;SDS011;68425;44.716;37.756;2023-04-01T03:21:45;2.72;;;1.20;;
79025;SDS011;68425;44.716;37.756;2023-04-01T03:22:46;2.35;;;1.27;;
79025;SDS011;68425;44.716;37.756;2023-04-01T03:23:48;2.05;;;1.10;;
79025;SDS011;68425;44.716;37.756;2023-04-01T03:24:54;2.72;;;1.10;;
79025;SDS011;68425;44.716;37.756;2023-04-01T03:25:55;1.95;;;1.05;;
79025;SDS011;68425;44.716;37.756;2023-04-01T03:26:56;2.70;;;1.23;;
79025;SDS011;68425;44.716;37.756;2023-04-01T03:28:00;3.00;;;1.40;;
79025;SDS011;68425;44.716;37.756;2023-04-01T03:29:02;2.33;;;1.13;;
79025;SDS011;68425;44.716;37.756;2023-04-01T03:30:04;2.28;;;1.15;;
79025;SDS011;68425;44.716;37.756;2023-04-01T03:31:13;2.50;;;1.33;;
79025;SDS011;68425;44.716;37.756;2023-04-01T03:32:22;3.40;;;1.30;;
79025;SDS011;68425;44.716;37.756;2023-04-01T03:33:28;1.98;;;1.10;;
79025;SDS011;68425;44.716;37.756;2023-04-01T03:34:30;2.22;;;1.20;;
79025;SDS011;68425;44.716;37.756;2023-04-01T03:35:32;4.85;;;1.30;;
79025;SDS011;68425;44.716;37.756;2023-04-01T03:36:34;3.15;;;1.50;;
79025;SDS011;68425;44.716;37.756;2023-04-01T03:37:35;4.75;;;1.27;;
79025;SDS011;68425;44.716;37.756;2023-04-01T03:38:37;4.90;;;1.08;;
79025;SDS011;68425;44.716;37.756;2023-04-01T03:39:41;2.45;;;1.05;;
79025;SDS011;68425;44.716;37.756;2023-04-01T03:40:42;3.47;;;1.30;;
79025;SDS011;68425;44.716;37.756;2023-04-01T03:41:46;2.75;;;1.40;;
79025;SDS011;68425;44.716;37.756;2023-04-01T03:42:48;3.17;;;1.50;;
79025;SDS011;68425;44.716;37.756;2023-04-01T03:43:50;4.40;;;1.55;;
79025;SDS011;68425;44.716;37.756;2023-04-01T03:44:51;4.65;;;1.98;;
79025;SDS011;68425;44.716;37.756;2023-04-01T03:45:53;11.48;;;2.08;;
79025;SDS011;68425;44.716;37.756;2023-04-01T03:46:57;6.15;;;1.63;;
79025;SDS011;68425;44.716;37.756;2023-04-01T03:48:02;5.53;;;1.60;;
79025;SDS011;68425;44.716;37.756;2023-04-01T03:49:07;4.75;;;1.63;;
79025;SDS011;68425;44.716;37.756;2023-04-01T03:50:12;3.05;;;1.75;;
79025;SDS011;68425;44.716;37.756;2023-04-01T03:51:13;3.40;;;1.50;;
79025;SDS011;68425;44.716;37.756;2023-04-01T03:52:15;3.25;;;1.60;;
79025;SDS011;68425;44.716;37.756;2023-04-01T03:53:18;3.13;;;1.60;;
79025;SDS011;68425;44.716;37.756;2023-04-01T03:54:21;4.03;;;1.38;;
79025;SDS011;68425;44.716;37.756;2023-04-01T03:55:23;2.72;;;1.52;;
79025;SDS011;68425;44.716;37.756;2023-04-01T03:56:24;4.32;;;1.50;;
79025;SDS011;68425;44.716;37.756;2023-04-01T03:57:27;3.30;;;1.38;;
79025;SDS011;68425;44.716;37.756;2023-04-01T03:58:32;5.50;;;1.65;;
79025;SDS011;68425;44.716;37.756;2023-04-01T03:59:36;4.03;;;1.60;;
79025;SDS011;68425;44.716;37.756;2023-04-01T04:00:42;3.10;;;1.52;;
79025;SDS011;68425;44.716;37.756;2023-04-01T04:01:45;3.58;;;1.48;;
79025;SDS011;68425;44.716;37.756;2023-04-01T04:02:48;4.53;;;1.70;;
79025;SDS011;68425;44.716;37.756;2023-04-01T04:03:55;3.17;;;1.40;;
79025;SDS011;68425;44.716;37.756;2023-04-01T04:04:57;3.20;;;1.30;;
79025;SDS011;68425;44.716;37.756;2023-04-01T04:05:58;3.05;;;1.35;;
79025;SDS011;68425;44.716;37.756;2023-04-01T04:07:00;2.85;;;1.40;;
79025;SDS011;68425;44.716;37.756;2023-04-01T04:08:05;3.83;;;1.52;;
79025;SDS011;68425;44.716;37.756;2023-04-01T04:09:07;3.60;;;1.70;;
79025;SDS011;68425;44.716;37.756;2023-04-01T04:10:09;3.90;;;1.50;;
79025;SDS011;68425;44.716;37.756;2023-04-01T04:11:11;3.10;;;1.45;;
79025;SDS011;68425;44.716;37.756;2023-04-01T04:12:19;3.47;;;1.70;;
79025;SDS011;68425;44.716;37.756;2023-04-01T04:13:20;3.03;;;1.25;;
79025;SDS011;68425;44.716;37.756;2023-04-01T04:14:29;3.92;;;1.50;;
79025;SDS011;68425;44.716;37.756;2023-04-01T04:15:30;4.90;;;1.73;;
79025;SDS011;68425;44.716;37.756;2023-04-01T04:16:34;7.03;;;2.05;;
79025;SDS011;68425;44.716;37.756;2023-04-01T04:17:37;3.00;;;1.48;;
79025;SDS011;68425;44.716;37.756;2023-04-01T04:18:38;3.53;;;1.33;;
79025;SDS011;68425;44.716;37.756;2023-04-01T04:19:40;3.33;;;1.45;;
79025;SDS011;68425;44.716;37.756;2023-04-01T04:20:45;4.88;;;1.75;;
79025;SDS011;68425;44.716;37.756;2023-04-01T04:21:52;4.32;;;1.80;;
79025;SDS011;68425;44.716;37.756;2023-04-01T04:22:54;4.60;;;1.52;;
79025;SDS011;68425;44.716;37.756;2023-04-01T04:23:55;2.75;;;1.27;;
79025;SDS011;68425;44.716;37.756;2023-04-01T04:24:57;2.80;;;1.40;;
79025;SDS011;68425;44.716;37.756;2023-04-01T04:25:59;4.00;;;1.75;;
79025;SDS011;68425;44.716;37.756;2023-04-01T04:27:05;4.78;;;1.60;;
79025;SDS011;68425;44.716;37.756;2023-04-01T04:28:07;5.57;;;1.48;;
79025;SDS011;68425;44.716;37.756;2023-04-01T04:29:09;6.18;;;1.50;;
79025;SDS011;68425;44.716;37.756;2023-04-01T04:30:10;3.35;;;1.30;;
79025;SDS011;68425;44.716;37.756;2023-04-01T04:31:12;4.90;;;1.67;;
79025;SDS011;68425;44.716;37.756;2023-04-01T04:32:20;5.15;;;1.85;;
79025;SDS011;68425;44.716;37.756;2023-04-01T04:33:22;3.17;;;1.58;;
79025;SDS011;68425;44.716;37.756;2023-04-01T04:34:24;4.78;;;1.73;;
79025;SDS011;68425;44.716;37.756;2023-04-01T04:35:25;5.70;;;1.83;;
79025;SDS011;68425;44.716;37.756;2023-04-01T04:36:27;3.65;;;1.63;;
79025;SDS011;68425;44.716;37.756;2023-04-01T04:37:29;3.60;;;1.45;;
79025;SDS011;68425;44.716;37.756;2023-04-01T04:38:30;4.10;;;1.90;;
79025;SDS011;68425;44.716;37.756;2023-04-01T04:39:32;3.97;;;1.50;;
79025;SDS011;68425;44.716;37.756;2023-04-01T04:40:35;3.63;;;1.58;;
79025;SDS011;68425;44.716;37.756;2023-04-01T04:41:38;3.72;;;1.60;;
79025;SDS011;68425;44.716;37.756;2023-04-01T04:42:39;3.80;;;1.30;;
79025;SDS011;68425;44.716;37.756;2023-04-01T04:43:51;3.60;;;1.55;;
79025;SDS011;68425;44.716;37.756;2023-04-01T04:44:55;3.83;;;1.35;;
79025;SDS011;68425;44.716;37.756;2023-04-01T04:45:57;4.60;;;1.50;;
79025;SDS011;68425;44.716;37.756;2023-04-01T04:46:58;3.30;;;1.50;;
79025;SDS011;68425;44.716;37.756;2023-04-01T04:48:00;4.95;;;1.45;;
79025;SDS011;68425;44.716;37.756;2023-04-01T04:49:02;2.35;;;1.30;;
79025;SDS011;68425;44.716;37.756;2023-04-01T04:50:04;3.22;;;1.33;;
79025;SDS011;68425;44.716;37.756;2023-04-01T04:51:06;3.58;;;1.75;;
79025;SDS011;68425;44.716;37.756;2023-04-01T04:52:08;5.72;;;1.75;;
79025;SDS011;68425;44.716;37.756;2023-04-01T04:53:10;4.53;;;1.50;;
79025;SDS011;68425;44.716;37.756;2023-04-01T04:54:12;3.33;;;1.58;;
79025;SDS011;68425;44.716;37.756;2023-04-01T04:55:33;4.18;;;1.40;;
79025;SDS011;68425;44.716;37.756;2023-04-01T04:56:54;3.25;;;1.40;;
79025;SDS011;68425;44.716;37.756;2023-04-01T04:57:58;4.55;;;1.27;;
79025;SDS011;68425;44.716;37.756;2023-04-01T04:59:00;4.72;;;1.70;;
79025;SDS011;68425;44.716;37.756;2023-04-01T05:00:14;2.80;;;1.20;;
79025;SDS011;68425;44.716;37.756;2023-04-01T05:01:27;3.20;;;1.30;;
79025;SDS011;68425;44.716;37.756;2023-04-01T05:02:29;3.25;;;1.40;;
79025;SDS011;68425;44.716;37.756;2023-04-01T05:03:30;4.47;;;1.58;;
79025;SDS011;68425;44.716;37.756;2023-04-01T05:04:35;2.53;;;1.27;;
79025;SDS011;68425;44.716;37.756;2023-04-01T05:05:39;3.50;;;1.40;;
79025;SDS011;68425;44.716;37.756;2023-04-01T05:06:42;2.53;;;1.23;;
79025;SDS011;68425;44.716;37.756;2023-04-01T05:07:44;3.83;;;1.52;;
79025;SDS011;68425;44.716;37.756;2023-04-01T05:08:46;3.40;;;1.50;;
79025;SDS011;68425;44.716;37.756;2023-04-01T05:09:47;3.60;;;1.55;;
79025;SDS011;68425;44.716;37.756;2023-04-01T05:10:49;3.10;;;1.60;;
79025;SDS011;68425;44.716;37.756;2023-04-01T05:11:50;2.33;;;1.20;;
79025;SDS011;68425;44.716;37.756;2023-04-01T05:12:53;5.10;;;1.67;;
79025;SDS011;68425;44.716;37.756;2023-04-01T05:13:56;3.40;;;1.30;;
79025;SDS011;68425;44.716;37.756;2023-04-01T05:14:58;4.07;;;1.40;;
79025;SDS011;68425;44.716;37.756;2023-04-01T05:16:00;3.25;;;1.45;;
79025;SDS011;68425;44.716;37.756;2023-04-01T05:17:07;3.70;;;1.45;;
79025;SDS011;68425;44.716;37.756;2023-04-01T05:18:10;6.63;;;1.40;;
79025;SDS011;68425;44.716;37.756;2023-04-01T05:19:11;3.53;;;1.42;;
79025;SDS011;68425;44.716;37.756;2023-04-01T05:20:22;3.63;;;1.25;;
79025;SDS011;68425;44.716;37.756;2023-04-01T05:21:28;3.17;;;1.42;;
79025;SDS011;68425;44.716;37.756;2023-04-01T05:22:33;2.78;;;1.40;;
79025;SDS011;68425;44.716;37.756;2023-04-01T05:23:37;3.00;;;1.27;;
79025;SDS011;68425;44.716;37.756;2023-04-01T05:24:39;4.00;;;1.38;;
79025;SDS011;68425;44.716;37.756;2023-04-01T05:25:41;2.97;;;1.20;;
79025;SDS011;68425;44.716;37.756;2023-04-01T05:26:43;2.97;;;1.20;;
79025;SDS011;68425;44.716;37.756;2023-04-01T05:27:44;3.20;;;1.50;;
79025;SDS011;68425;44.716;37.756;2023-04-01T05:28:46;4.70;;;1.45;;
79025;SDS011;68425;44.716;37.756;2023-04-01T05:29:47;5.03;;;1.55;;
79025;SDS011;68425;44.716;37.756;2023-04-01T05:31:15;5.80;;;1.65;;
79025;SDS011;68425;44.716;37.756;2023-04-01T05:32:19;4.78;;;1.58;;
79025;SDS011;68425;44.716;37.756;2023-04-01T05:33:21;3.83;;;1.42;;
79025;SDS011;68425;44.716;37.756;2023-04-01T05:34:22;5.00;;;1.55;;
79025;SDS011;68425;44.716;37.756;2023-04-01T05:35:24;5.35;;;1.58;;
79025;SDS011;68425;44.716;37.756;2023-04-01T05:36:26;5.45;;;1.65;;
79025;SDS011;68425;44.716;37.756;2023-04-01T05:37:29;3.53;;;1.77;;
79025;SDS011;68425;44.716;37.756;2023-04-01T05:38:31;3.60;;;1.80;;
79025;SDS011;68425;44.716;37.756;2023-04-01T05:39:35;4.35;;;1.95;;
79025;SDS011;68425;44.716;37.756;2023-04-01T05:40:40;4.03;;;1.90;;
79025;SDS011;68425;44.716;37.756;2023-04-01T05:41:42;6.07;;;1.50;;
79025;SDS011;68425;44.716;37.756;2023-04-01T05:42:43;5.88;;;1.90;;
79025;SDS011;68425;44.716;37.756;2023-04-01T05:43:45;5.13;;;1.55;;
79025;SDS011;68425;44.716;37.756;2023-04-01T05:45:07;6.18;;;1.77;;
79025;SDS011;68425;44.716;37.756;2023-04-01T05:46:35;3.42;;;1.42;;
79025;SDS011;68425;44.716;37.756;2023-04-01T05:47:47;5.53;;;1.50;;
79025;SDS011;68425;44.716;37.756;2023-04-01T05:48:50;4.25;;;1.58;;
79025;SDS011;68425;44.716;37.756;2023-04-01T05:49:51;13.05;;;2.38;;
79025;SDS011;68425;44.716;37.756;2023-04-01T05:50:53;3.92;;;1.65;;
79025;SDS011;68425;44.716;37.756;2023-04-01T05:51:55;6.75;;;1.92;;
79025;SDS011;68425;44.716;37.756;2023-04-01T05:52:57;4.05;;;1.98;;
79025;SDS011;68425;44.716;37.756;2023-04-01T05:53:59;4.43;;;1.50;;
79025;SDS011;68425;44.716;37.756;2023-04-01T05:55:01;3.63;;;1.30;;
79025;SDS011;68425;44.716;37.756;2023-04-01T05:56:04;4.30;;;1.30;;
79025;SDS011;68425;44.716;37.756;2023-04-01T05:57:11;3.85;;;1.50;;
79025;SDS011;68425;44.716;37.756;2023-04-01T05:58:13;4.32;;;1.70;;
79025;SDS011;68425;44.716;37.756;2023-04-01T05:59:18;5.40;;;1.60;;
79025;SDS011;68425;44.716;37.756;2023-04-01T06:00:20;3.63;;;1.50;;
79025;SDS011;68425;44.716;37.756;2023-04-01T06:01:23;4.63;;;1.50;;
79025;SDS011;68425;44.716;37.756;2023-04-01T06:02:24;3.10;;;1.33;;
79025;SDS011;68425;44.716;37.756;2023-04-01T06:03:26;3.53;;;1.23;;
79025;SDS011;68425;44.716;37.756;2023-04-01T06:04:28;3.70;;;1.60;;
79025;SDS011;68425;44.716;37.756;2023-04-01T06:05:39;5.38;;;1.55;;
79025;SDS011;68425;44.716;37.756;2023-04-01T06:06:42;6.53;;;1.40;;
79025;SDS011;68425;44.716;37.756;2023-04-01T06:07:46;4.15;;;1.48;;
79025;SDS011;68425;44.716;37.756;2023-04-01T06:08:49;3.60;;;1.50;;
79025;SDS011;68425;44.716;37.756;2023-04-01T06:09:51;8.27;;;1.65;;
79025;SDS011;68425;44.716;37.756;2023-04-01T06:12:25;3.53;;;1.45;;
79025;SDS011;68425;44.716;37.756;2023-04-01T06:24:10;4.57;;;1.58;;
79025;SDS011;68425;44.716;37.756;2023-04-01T06:30:51;5.90;;;1.60;;
79025;SDS011;68425;44.716;37.756;2023-04-01T06:38:20;3.65;;;1.20;;
79025;SDS011;68425;44.716;37.756;2023-04-01T06:44:46;4.22;;;1.45;;
79025;SDS011;68425;44.716;37.756;2023-04-01T06:49:57;2.83;;;1.30;;
79025;SDS011;68425;44.716;37.756;2023-04-01T06:53:25;2.30;;;1.33;;
79025;SDS011;68425;44.716;37.756;2023-04-01T06:55:14;3.92;;;1.20;;
79025;SDS011;68425;44.716;37.756;2023-04-01T06:56:58;4.63;;;1.52;;
79025;SDS011;68425;44.716;37.756;2023-04-01T06:58:11;3.38;;;1.38;;
79025;SDS011;68425;44.716;37.756;2023-04-01T06:59:31;2.88;;;1.50;;
79025;SDS011;68425;44.716;37.756;2023-04-01T07:00:35;2.95;;;1.42;;
79025;SDS011;68425;44.716;37.756;2023-04-01T07:01:41;3.63;;;1.48;;
79025;SDS011;68425;44.716;37.756;2023-04-01T07:04:30;3.65;;;1.45;;
79025;SDS011;68425;44.716;37.756;2023-04-01T07:05:35;3.08;;;1.13;;
79025;SDS011;68425;44.716;37.756;2023-04-01T07:07:11;2.45;;;1.15;;
79025;SDS011;68425;44.716;37.756;2023-04-01T07:08:29;5.45;;;1.85;;
79025;SDS011;68425;44.716;37.756;2023-04-01T07:09:35;3.88;;;1.70;;
79025;SDS011;68425;44.716;37.756;2023-04-01T07:11:06;3.55;;;1.20;;
79025;SDS011;68425;44.716;37.756;2023-04-01T07:15:24;5.40;;;1.50;;
79025;SDS011;68425;44.716;37.756;2023-04-01T07:17:39;3.97;;;1.42;;
79025;SDS011;68425;44.716;37.756;2023-04-01T07:20:24;5.50;;;2.00;;
79025;SDS011;68425;44.716;37.756;2023-04-01T07:21:34;8.68;;;2.00;;
79025;SDS011;68425;44.716;37.756;2023-04-01T07:22:49;3.45;;;1.52;;
79025;SDS011;68425;44.716;37.756;2023-04-01T07:24:05;5.38;;;1.80;;
79025;SDS011;68425;44.716;37.756;2023-04-01T07:26:49;5.20;;;1.30;;
79025;SDS011;68425;44.716;37.756;2023-04-01T07:28:02;4.72;;;1.52;;
79025;SDS011;68425;44.716;37.756;2023-04-01T07:29:13;4.53;;;1.50;;
79025;SDS011;68425;44.716;37.756;2023-04-01T07:30:24;4.30;;;1.42;;
79025;SDS011;68425;44.716;37.756;2023-04-01T07:33:01;3.22;;;1.05;;
79025;SDS011;68425;44.716;37.756;2023-04-01T07:34:23;6.05;;;1.45;;
79025;SDS011;68425;44.716;37.756;2023-04-01T07:35:34;4.63;;;1.38;;
79025;SDS011;68425;44.716;37.756;2023-04-01T07:36:53;3.13;;;1.30;;
79025;SDS011;68425;44.716;37.756;2023-04-01T07:41:21;3.42;;;1.70;;
79025;SDS011;68425;44.716;37.756;2023-04-01T07:45:30;4.55;;;1.67;;
79025;SDS011;68425;44.716;37.756;2023-04-01T07:47:09;2.13;;;1.23;;